Terminal Aerodrome Forecast
Issued by NWS Louisville, KY

Home | Current Version | Previous Version | Text Only | Print | Product List | Glossary On
Versions: 1 2 3 4 5 6 7 8 9 10 11 12 13 14
000
FTUS43 KLMK 111120
TAFSDF
TAF
KSDF 111120Z 1112/1218 18005KT P6SM SCT100
     FM111600 20011G20KT P6SM BKN150
     FM120200 27013KT P6SM BKN040
     FM120800 30016KT P6SM VCSH OVC027
     FM121400 30017KT P6SM BKN040=

USA.gov is the U.S. government's official web portal to all federal, state and local government web resources and services.